sensor_id;sensor_type;location;lat;lon;timestamp;pressure;altitude;pressure_sealevel;temperature;humidity
39793;BME280;26080;42.264;24.536;2023-12-20T00:01:39;99713.78;;;-0.13;100.00
39793;BME280;26080;42.264;24.536;2023-12-20T00:04:04;99713.78;;;-0.10;100.00
39793;BME280;26080;42.264;24.536;2023-12-20T00:06:30;99706.94;;;-0.08;100.00
39793;BME280;26080;42.264;24.536;2023-12-20T00:08:56;99706.06;;;-0.09;100.00
39793;BME280;26080;42.264;24.536;2023-12-20T00:11:23;99662.25;;;-0.38;100.00
39793;BME280;26080;42.264;24.536;2023-12-20T00:13:48;99706.06;;;-0.06;100.00
39793;BME280;26080;42.264;24.536;2023-12-20T00:16:14;99695.78;;;-0.09;100.00
39793;BME280;26080;42.264;24.536;2023-12-20T00:18:39;99669.13;;;-0.34;100.00
39793;BME280;26080;42.264;24.536;2023-12-20T00:21:04;99695.75;;;-0.21;100.00
39793;BME280;26080;42.264;24.536;2023-12-20T00:23:30;99695.75;;;-0.25;100.00
39793;BME280;26080;42.264;24.536;2023-12-20T00:25:55;99697.47;;;-0.26;100.00
39793;BME280;26080;42.264;24.536;2023-12-20T00:28:21;99689.69;;;-0.32;100.00
39793;BME280;26080;42.264;24.536;2023-12-20T00:30:47;99688.03;;;-0.25;100.00
39793;BME280;26080;42.264;24.536;2023-12-20T00:33:12;99682.84;;;-0.28;100.00
39793;BME280;26080;42.264;24.536;2023-12-20T00:35:37;99676.06;;;0.04;100.00
39793;BME280;26080;42.264;24.536;2023-12-20T00:38:03;99653.72;;;-0.12;100.00
39793;BME280;26080;42.264;24.536;2023-12-20T00:40:30;99673.44;;;-0.04;100.00
39793;BME280;26080;42.264;24.536;2023-12-20T00:42:55;99672.56;;;-0.19;100.00
39793;BME280;26080;42.264;24.536;2023-12-20T00:45:21;99639.06;;;-0.53;100.00
39793;BME280;26080;42.264;24.536;2023-12-20T00:47:46;99669.97;;;-0.38;100.00
39793;BME280;26080;42.264;24.536;2023-12-20T00:50:11;99669.13;;;-0.40;100.00
39793;BME280;26080;42.264;24.536;2023-12-20T00:52:37;99657.06;;;-0.47;100.00
39793;BME280;26080;42.264;24.536;2023-12-20T00:55:03;99653.69;;;-0.24;100.00
39793;BME280;26080;42.264;24.536;2023-12-20T00:57:29;99659.72;;;-0.27;100.00
39793;BME280;26080;42.264;24.536;2023-12-20T00:59:54;99657.97;;;-0.36;100.00
39793;BME280;26080;42.264;24.536;2023-12-20T01:02:20;99654.53;;;-0.39;100.00
39793;BME280;26080;42.264;24.536;2023-12-20T01:04:45;99648.50;;;-0.44;100.00
39793;BME280;26080;42.264;24.536;2023-12-20T01:07:10;99650.22;;;-0.51;100.00
39793;BME280;26080;42.264;24.536;2023-12-20T01:09:36;99650.16;;;-0.60;100.00
39793;BME280;26080;42.264;24.536;2023-12-20T01:12:01;99639.84;;;-0.71;100.00
39793;BME280;26080;42.264;24.536;2023-12-20T01:14:27;99643.25;;;-0.76;100.00
39793;BME280;26080;42.264;24.536;2023-12-20T01:16:52;99636.41;;;-0.74;100.00
39793;BME280;26080;42.264;24.536;2023-12-20T01:19:17;99624.34;;;-0.89;100.00
39793;BME280;26080;42.264;24.536;2023-12-20T01:21:43;99628.63;;;-0.91;100.00
39793;BME280;26080;42.264;24.536;2023-12-20T01:24:09;99632.91;;;-0.92;100.00
39793;BME280;26080;42.264;24.536;2023-12-20T01:26:34;99622.63;;;-0.88;100.00
39793;BME280;26080;42.264;24.536;2023-12-20T01:29:00;99616.63;;;-0.86;100.00
39793;BME280;26080;42.264;24.536;2023-12-20T01:31:26;99614.94;;;-0.87;100.00
39793;BME280;26080;42.264;24.536;2023-12-20T01:33:52;99621.78;;;-0.89;100.00
39793;BME280;26080;42.264;24.536;2023-12-20T01:36:19;99611.50;;;-0.94;100.00
39793;BME280;26080;42.264;24.536;2023-12-20T01:38:45;99607.16;;;-0.98;100.00
39793;BME280;26080;42.264;24.536;2023-12-20T01:41:10;99605.44;;;-0.99;100.00
39793;BME280;26080;42.264;24.536;2023-12-20T01:43:35;99606.31;;;-0.98;100.00
39793;BME280;26080;42.264;24.536;2023-12-20T01:46:04;99605.44;;;-1.00;100.00
39793;BME280;26080;42.264;24.536;2023-12-20T01:48:30;99602.03;;;-1.01;100.00
39793;BME280;26080;42.264;24.536;2023-12-20T01:50:58;99591.69;;;-1.10;100.00
39793;BME280;26080;42.264;24.536;2023-12-20T01:53:25;99593.38;;;-1.21;100.00
39793;BME280;26080;42.264;24.536;2023-12-20T01:55:52;99588.25;;;-1.15;100.00
39793;BME280;26080;42.264;24.536;2023-12-20T01:58:19;99575.41;;;-1.10;100.00
39793;BME280;26080;42.264;24.536;2023-12-20T02:00:45;99572.84;;;-1.12;100.00
39793;BME280;26080;42.264;24.536;2023-12-20T02:03:11;99572.88;;;-1.09;100.00
39793;BME280;26080;42.264;24.536;2023-12-20T02:05:37;99576.31;;;-1.04;100.00
39793;BME280;26080;42.264;24.536;2023-12-20T02:08:03;99561.78;;;-0.91;100.00
39793;BME280;26080;42.264;24.536;2023-12-20T02:10:29;99536.03;;;-1.08;100.00
39793;BME280;26080;42.264;24.536;2023-12-20T02:12:55;99560.06;;;-0.89;100.00
39793;BME280;26080;42.264;24.536;2023-12-20T02:15:20;99557.50;;;-0.94;100.00
39793;BME280;26080;42.264;24.536;2023-12-20T02:17:47;99547.19;;;-1.03;100.00
39793;BME280;26080;42.264;24.536;2023-12-20T02:20:13;99551.47;;;-1.02;100.00
39793;BME280;26080;42.264;24.536;2023-12-20T02:22:38;99545.50;;;-0.87;100.00
39793;BME280;26080;42.264;24.536;2023-12-20T02:25:04;99545.50;;;-0.85;100.00
39793;BME280;26080;42.264;24.536;2023-12-20T02:27:30;99507.75;;;-0.99;100.00
39793;BME280;26080;42.264;24.536;2023-12-20T02:29:55;99535.25;;;-0.61;100.00
39793;BME280;26080;42.264;24.536;2023-12-20T02:32:21;99536.09;;;-0.76;100.00
39793;BME280;26080;42.264;24.536;2023-12-20T02:34:48;99539.50;;;-0.84;100.00
39793;BME280;26080;42.264;24.536;2023-12-20T02:37:14;99532.63;;;-0.88;100.00
39793;BME280;26080;42.264;24.536;2023-12-20T02:39:40;99530.94;;;-0.88;100.00
39793;BME280;26080;42.264;24.536;2023-12-20T02:42:05;99533.50;;;-0.83;100.00
39793;BME280;26080;42.264;24.536;2023-12-20T02:44:30;99530.06;;;-0.88;100.00
39793;BME280;26080;42.264;24.536;2023-12-20T02:46:56;99525.78;;;-0.91;100.00
39793;BME280;26080;42.264;24.536;2023-12-20T02:49:21;99535.22;;;-0.88;100.00
39793;BME280;26080;42.264;24.536;2023-12-20T02:51:47;99521.50;;;-0.91;100.00
39793;BME280;26080;42.264;24.536;2023-12-20T02:54:12;99469.16;;;-1.12;100.00
39793;BME280;26080;42.264;24.536;2023-12-20T02:56:37;99518.09;;;-0.77;100.00
39793;BME280;26080;42.264;24.536;2023-12-20T02:59:03;99519.81;;;-0.58;100.00
39793;BME280;26080;42.264;24.536;2023-12-20T03:01:31;99510.38;;;-0.70;100.00
39793;BME280;26080;42.264;24.536;2023-12-20T03:03:57;99509.53;;;-0.76;100.00
39793;BME280;26080;42.264;24.536;2023-12-20T03:06:22;99507.81;;;-0.82;100.00
39793;BME280;26080;42.264;24.536;2023-12-20T03:08:48;99513.78;;;-0.84;100.00
39793;BME280;26080;42.264;24.536;2023-12-20T03:11:13;99515.50;;;-0.93;100.00
39793;BME280;26080;42.264;24.536;2023-12-20T03:13:38;99516.34;;;-0.91;100.00
39793;BME280;26080;42.264;24.536;2023-12-20T03:16:11;99512.97;;;-0.59;100.00
39793;BME280;26080;42.264;24.536;2023-12-20T03:18:36;99511.22;;;-0.69;100.00
39793;BME280;26080;42.264;24.536;2023-12-20T03:21:02;99502.66;;;-0.88;100.00
39793;BME280;26080;42.264;24.536;2023-12-20T03:23:29;99505.22;;;-0.91;100.00
39793;BME280;26080;42.264;24.536;2023-12-20T03:25:56;99476.88;;;-1.11;100.00
39793;BME280;26080;42.264;24.536;2023-12-20T03:28:21;99473.44;;;-1.10;100.00
39793;BME280;26080;42.264;24.536;2023-12-20T03:30:48;99490.66;;;-0.87;100.00
39793;BME280;26080;42.264;24.536;2023-12-20T03:33:14;99483.75;;;-1.04;100.00
39793;BME280;26080;42.264;24.536;2023-12-20T03:35:39;99488.91;;;-1.04;100.00
39793;BME280;26080;42.264;24.536;2023-12-20T03:38:05;99483.75;;;-1.07;100.00
39793;BME280;26080;42.264;24.536;2023-12-20T03:40:30;99488.84;;;-1.25;100.00
39793;BME280;26080;42.264;24.536;2023-12-20T03:42:55;99486.22;;;-1.37;100.00
39793;BME280;26080;42.264;24.536;2023-12-20T03:45:21;99485.41;;;-1.29;100.00
39793;BME280;26080;42.264;24.536;2023-12-20T03:47:46;99488.81;;;-1.28;100.00
39793;BME280;26080;42.264;24.536;2023-12-20T03:50:12;99486.19;;;-1.50;100.00
39793;BME280;26080;42.264;24.536;2023-12-20T03:52:38;99486.97;;;-1.66;100.00
39793;BME280;26080;42.264;24.536;2023-12-20T03:55:04;99497.22;;;-1.75;100.00
39793;BME280;26080;42.264;24.536;2023-12-20T03:57:29;99492.06;;;-1.76;100.00
39793;BME280;26080;42.264;24.536;2023-12-20T03:59:55;99488.59;;;-1.82;100.00
39793;BME280;26080;42.264;24.536;2023-12-20T04:02:20;99486.94;;;-1.73;100.00
39793;BME280;26080;42.264;24.536;2023-12-20T04:04:46;99429.41;;;-2.11;100.00
39793;BME280;26080;42.264;24.536;2023-12-20T04:07:11;99486.94;;;-1.78;100.00
39793;BME280;26080;42.264;24.536;2023-12-20T04:09:36;99476.63;;;-1.81;100.00
39793;BME280;26080;42.264;24.536;2023-12-20T04:12:03;99475.88;;;-1.53;100.00
39793;BME280;26080;42.264;24.536;2023-12-20T04:14:28;99469.06;;;-1.49;100.00
39793;BME280;26080;42.264;24.536;2023-12-20T04:16:54;99458.81;;;-1.41;100.00
39793;BME280;26080;42.264;24.536;2023-12-20T04:19:19;99457.91;;;-1.56;100.00
39793;BME280;26080;42.264;24.536;2023-12-20T04:21:44;99468.16;;;-1.62;100.00
39793;BME280;26080;42.264;24.536;2023-12-20T04:24:10;99463.84;;;-1.73;100.00
39793;BME280;26080;42.264;24.536;2023-12-20T04:26:35;99477.53;;;-1.74;100.00
39793;BME280;26080;42.264;24.536;2023-12-20T04:29:01;99478.38;;;-1.69;100.00
39793;BME280;26080;42.264;24.536;2023-12-20T04:31:26;99476.69;;;-1.69;100.00
39793;BME280;26080;42.264;24.536;2023-12-20T04:33:51;99485.25;;;-1.70;100.00
39793;BME280;26080;42.264;24.536;2023-12-20T04:36:17;99475.81;;;-1.69;100.00
39793;BME280;26080;42.264;24.536;2023-12-20T04:38:42;99472.38;;;-1.77;100.00
39793;BME280;26080;42.264;24.536;2023-12-20T04:41:08;99471.53;;;-1.69;100.00
39793;BME280;26080;42.264;24.536;2023-12-20T04:43:33;99471.53;;;-1.70;100.00
39793;BME280;26080;42.264;24.536;2023-12-20T04:45:59;99450.97;;;-1.78;100.00
39793;BME280;26080;42.264;24.536;2023-12-20T04:48:24;99463.84;;;-1.66;100.00
39793;BME280;26080;42.264;24.536;2023-12-20T04:50:50;99432.97;;;-1.80;100.00
39793;BME280;26080;42.264;24.536;2023-12-20T04:53:15;99456.19;;;-1.58;100.00
39793;BME280;26080;42.264;24.536;2023-12-20T04:55:40;99427.88;;;-1.72;100.00
39793;BME280;26080;42.264;24.536;2023-12-20T04:58:06;99444.22;;;-1.55;100.00
39793;BME280;26080;42.264;24.536;2023-12-20T05:00:31;99452.75;;;-1.60;100.00
39793;BME280;26080;42.264;24.536;2023-12-20T05:02:56;99448.47;;;-1.61;100.00
39793;BME280;26080;42.264;24.536;2023-12-20T05:05:22;99446.78;;;-1.58;100.00
39793;BME280;26080;42.264;24.536;2023-12-20T05:07:47;99445.88;;;-1.66;100.00
39793;BME280;26080;42.264;24.536;2023-12-20T05:10:13;99445.00;;;-1.71;100.00
39793;BME280;26080;42.264;24.536;2023-12-20T05:12:38;99442.44;;;-1.68;100.00
39793;BME280;26080;42.264;24.536;2023-12-20T05:15:06;99439.88;;;-1.68;100.00
39793;BME280;26080;42.264;24.536;2023-12-20T05:17:32;99433.06;;;-1.64;100.00
39793;BME280;26080;42.264;24.536;2023-12-20T05:19:57;99431.34;;;-1.64;100.00
39793;BME280;26080;42.264;24.536;2023-12-20T05:22:22;99400.44;;;-1.90;100.00
39793;BME280;26080;42.264;24.536;2023-12-20T05:24:48;99419.38;;;-1.63;100.00
39793;BME280;26080;42.264;24.536;2023-12-20T05:27:13;99427.94;;;-1.64;100.00
39793;BME280;26080;42.264;24.536;2023-12-20T05:29:39;99425.31;;;-1.69;100.00
39793;BME280;26080;42.264;24.536;2023-12-20T05:32:04;99420.19;;;-1.72;100.00
39793;BME280;26080;42.264;24.536;2023-12-20T05:34:30;99427.88;;;-1.75;100.00
39793;BME280;26080;42.264;24.536;2023-12-20T05:36:56;99421.91;;;-1.74;100.00
39793;BME280;26080;42.264;24.536;2023-12-20T05:39:21;99415.06;;;-1.69;100.00
39793;BME280;26080;42.264;24.536;2023-12-20T05:41:47;99402.22;;;-1.72;100.00
39793;BME280;26080;42.264;24.536;2023-12-20T05:44:13;99410.78;;;-1.65;100.00
39793;BME280;26080;42.264;24.536;2023-12-20T05:46:38;99411.63;;;-1.65;100.00
39793;BME280;26080;42.264;24.536;2023-12-20T05:49:05;99403.09;;;-1.59;100.00
39793;BME280;26080;42.264;24.536;2023-12-20T05:51:30;99409.94;;;-1.64;100.00
39793;BME280;26080;42.264;24.536;2023-12-20T05:53:56;99405.69;;;-1.53;100.00
39793;BME280;26080;42.264;24.536;2023-12-20T05:56:21;99401.44;;;-1.50;100.00
39793;BME280;26080;42.264;24.536;2023-12-20T05:58:47;99362.84;;;-1.69;100.00
39793;BME280;26080;42.264;24.536;2023-12-20T06:01:14;99398.78;;;-1.68;100.00
39793;BME280;26080;42.264;24.536;2023-12-20T06:03:42;99392.75;;;-1.82;100.00
39793;BME280;26080;42.264;24.536;2023-12-20T06:06:08;99398.75;;;-1.79;100.00
39793;BME280;26080;42.264;24.536;2023-12-20T06:08:33;99393.66;;;-1.77;100.00
39793;BME280;26080;42.264;24.536;2023-12-20T06:10:59;99392.78;;;-1.73;100.00
39793;BME280;26080;42.264;24.536;2023-12-20T06:13:25;99384.19;;;-1.81;100.00
39793;BME280;26080;42.264;24.536;2023-12-20T06:15:51;99385.03;;;-1.88;100.00
39793;BME280;26080;42.264;24.536;2023-12-20T06:18:17;99392.75;;;-1.85;100.00
39793;BME280;26080;42.264;24.536;2023-12-20T06:20:42;99379.06;;;-1.84;100.00
39793;BME280;26080;42.264;24.536;2023-12-20T06:23:07;99389.38;;;-1.78;100.00
39793;BME280;26080;42.264;24.536;2023-12-20T06:25:33;99386.78;;;-1.75;100.00
39793;BME280;26080;42.264;24.536;2023-12-20T06:27:58;99383.38;;;-1.72;100.00
39793;BME280;26080;42.264;24.536;2023-12-20T06:30:24;99388.56;;;-1.63;100.00
39793;BME280;26080;42.264;24.536;2023-12-20T06:32:50;99391.97;;;-1.57;100.00
39793;BME280;26080;42.264;24.536;2023-12-20T06:35:16;99370.56;;;-1.59;100.00
39793;BME280;26080;42.264;24.536;2023-12-20T06:37:41;99382.56;;;-1.52;100.00
39793;BME280;26080;42.264;24.536;2023-12-20T06:40:11;99392.88;;;-1.42;100.00
39793;BME280;26080;42.264;24.536;2023-12-20T06:42:37;99383.47;;;-1.36;100.00
39793;BME280;26080;42.264;24.536;2023-12-20T06:45:04;99387.78;;;-1.00;100.00
39793;BME280;26080;42.264;24.536;2023-12-20T06:47:30;99397.22;;;-1.02;100.00
39793;BME280;26080;42.264;24.536;2023-12-20T06:49:55;99399.78;;;-1.05;100.00
39793;BME280;26080;42.264;24.536;2023-12-20T06:52:21;99394.63;;;-0.83;100.00
39793;BME280;26080;42.264;24.536;2023-12-20T06:54:46;99395.50;;;-0.77;100.00
39793;BME280;26080;42.264;24.536;2023-12-20T06:57:11;99398.94;;;-0.76;100.00
39793;BME280;26080;42.264;24.536;2023-12-20T06:59:41;99368.94;;;-0.80;100.00
39793;BME280;26080;42.264;24.536;2023-12-20T07:02:06;99376.63;;;-0.61;100.00
39793;BME280;26080;42.264;24.536;2023-12-20T07:04:32;99378.34;;;-0.52;100.00
39793;BME280;26080;42.264;24.536;2023-12-20T07:06:57;99379.16;;;-0.42;100.00
39793;BME280;26080;42.264;24.536;2023-12-20T07:09:26;99378.34;;;-0.49;100.00
39793;BME280;26080;42.264;24.536;2023-12-20T07:11:52;99350.91;;;-0.59;100.00
39793;BME280;26080;42.264;24.536;2023-12-20T07:14:18;99369.69;;;-0.30;100.00
39793;BME280;26080;42.264;24.536;2023-12-20T07:16:43;99358.56;;;-0.22;100.00
39793;BME280;26080;42.264;24.536;2023-12-20T07:19:08;99327.72;;;-0.38;100.00
39793;BME280;26080;42.264;24.536;2023-12-20T07:21:34;99353.38;;;-0.13;100.00
39793;BME280;26080;42.264;24.536;2023-12-20T07:23:59;99356.81;;;-0.13;100.00
39793;BME280;26080;42.264;24.536;2023-12-20T07:26:25;99354.16;;;-0.01;100.00
39793;BME280;26080;42.264;24.536;2023-12-20T07:28:50;99349.00;;;0.06;100.00
39793;BME280;26080;42.264;24.536;2023-12-20T07:31:16;99349.84;;;0.09;100.00
39793;BME280;26080;42.264;24.536;2023-12-20T07:33:42;99343.81;;;0.10;100.00
39793;BME280;26080;42.264;24.536;2023-12-20T07:36:07;99357.56;;;0.15;100.00
39793;BME280;26080;42.264;24.536;2023-12-20T07:38:33;99343.72;;;0.27;100.00
39793;BME280;26080;42.264;24.536;2023-12-20T07:40:58;99322.28;;;0.23;100.00
39793;BME280;26080;42.264;24.536;2023-12-20T07:43:24;99347.91;;;0.51;100.00
39793;BME280;26080;42.264;24.536;2023-12-20T07:45:49;99329.94;;;0.43;100.00
39793;BME280;26080;42.264;24.536;2023-12-20T07:48:15;99354.69;;;0.66;100.00
39793;BME280;26080;42.264;24.536;2023-12-20T07:50:41;99360.59;;;0.78;100.00
39793;BME280;26080;42.264;24.536;2023-12-20T07:53:07;99345.94;;;0.86;100.00
39793;BME280;26080;42.264;24.536;2023-12-20T07:55:35;99350.13;;;1.01;100.00
39793;BME280;26080;42.264;24.536;2023-12-20T07:58:04;99344.94;;;1.06;100.00
39793;BME280;26080;42.264;24.536;2023-12-20T08:00:30;99338.03;;;1.11;100.00
39793;BME280;26080;42.264;24.536;2023-12-20T08:02:55;99337.75;;;1.40;100.00
39793;BME280;26080;42.264;24.536;2023-12-20T08:05:21;99329.88;;;1.52;100.00
39793;BME280;26080;42.264;24.536;2023-12-20T08:07:46;99333.19;;;1.65;100.00
39793;BME280;26080;42.264;24.536;2023-12-20T08:10:12;99335.63;;;1.75;100.00
39793;BME280;26080;42.264;24.536;2023-12-20T08:12:37;99333.03;;;1.80;100.00
39793;BME280;26080;42.264;24.536;2023-12-20T08:15:05;99326.84;;;1.90;100.00
39793;BME280;26080;42.264;24.536;2023-12-20T08:17:30;99277.13;;;1.74;100.00
39793;BME280;26080;42.264;24.536;2023-12-20T08:19:56;99325.66;;;2.20;100.00
39793;BME280;26080;42.264;24.536;2023-12-20T08:22:21;99314.34;;;2.27;100.00
39793;BME280;26080;42.264;24.536;2023-12-20T08:24:47;99309.94;;;2.34;100.00
39793;BME280;26080;42.264;24.536;2023-12-20T08:27:13;99308.19;;;2.36;100.00
39793;BME280;26080;42.264;24.536;2023-12-20T08:29:38;99320.25;;;2.37;100.00
39793;BME280;26080;42.264;24.536;2023-12-20T08:32:04;99310.69;;;2.42;100.00
39793;BME280;26080;42.264;24.536;2023-12-20T08:34:29;99302.84;;;2.48;100.00
39793;BME280;26080;42.264;24.536;2023-12-20T08:36:55;99297.28;;;2.73;100.00
39793;BME280;26080;42.264;24.536;2023-12-20T08:39:21;99297.16;;;2.82;100.00
39793;BME280;26080;42.264;24.536;2023-12-20T08:41:46;99291.91;;;2.88;100.00
39793;BME280;26080;42.264;24.536;2023-12-20T08:44:12;99287.38;;;2.99;100.00
39793;BME280;26080;42.264;24.536;2023-12-20T08:46:37;99275.94;;;3.12;100.00
39793;BME280;26080;42.264;24.536;2023-12-20T08:49:02;99274.78;;;3.30;100.00
39793;BME280;26080;42.264;24.536;2023-12-20T08:51:28;99231.19;;;3.07;100.00
39793;BME280;26080;42.264;24.536;2023-12-20T08:53:54;99282.50;;;3.32;100.00
39793;BME280;26080;42.264;24.536;2023-12-20T08:56:19;99265.03;;;3.43;100.00
39793;BME280;26080;42.264;24.536;2023-12-20T08:58:48;99266.44;;;3.59;100.00
39793;BME280;26080;42.264;24.536;2023-12-20T09:01:14;99250.78;;;3.65;100.00
39793;BME280;26080;42.264;24.536;2023-12-20T09:03:40;99216.28;;;3.63;100.00
39793;BME280;26080;42.264;24.536;2023-12-20T09:06:06;99239.97;;;3.86;100.00
39793;BME280;26080;42.264;24.536;2023-12-20T09:08:31;99235.50;;;3.93;100.00
39793;BME280;26080;42.264;24.536;2023-12-20T09:10:57;99231.09;;;3.97;100.00
39793;BME280;26080;42.264;24.536;2023-12-20T09:13:22;99213.94;;;3.93;100.00
39793;BME280;26080;42.264;24.536;2023-12-20T09:15:54;99229.13;;;4.08;100.00
39793;BME280;26080;42.264;24.536;2023-12-20T09:18:20;99230.03;;;4.07;100.00
39793;BME280;26080;42.264;24.536;2023-12-20T09:20:45;99221.19;;;4.15;100.00
39793;BME280;26080;42.264;24.536;2023-12-20T09:23:10;99199.25;;;4.30;100.00
39793;BME280;26080;42.264;24.536;2023-12-20T09:25:36;99206.63;;;4.47;100.00
39793;BME280;26080;42.264;24.536;2023-12-20T09:28:02;99196.81;;;4.60;100.00
39793;BME280;26080;42.264;24.536;2023-12-20T09:30:27;99193.56;;;4.86;100.00
39793;BME280;26080;42.264;24.536;2023-12-20T09:32:53;99187.97;;;5.01;100.00
39793;BME280;26080;42.264;24.536;2023-12-20T09:35:19;99188.41;;;5.17;100.00
39793;BME280;26080;42.264;24.536;2023-12-20T09:37:44;99179.47;;;5.27;100.00
39793;BME280;26080;42.264;24.536;2023-12-20T09:40:13;99173.53;;;5.23;100.00
39793;BME280;26080;42.264;24.536;2023-12-20T09:42:50;99179.41;;;5.59;100.00
39793;BME280;26080;42.264;24.536;2023-12-20T09:45:21;99154.06;;;5.68;100.00
39793;BME280;26080;42.264;24.536;2023-12-20T09:47:51;99151.22;;;5.75;100.00
39793;BME280;26080;42.264;24.536;2023-12-20T09:50:21;99162.00;;;5.92;100.00
39793;BME280;26080;42.264;24.536;2023-12-20T09:52:52;99155.28;;;5.84;100.00
39793;BME280;26080;42.264;24.536;2023-12-20T09:55:18;99148.50;;;5.80;100.00
39793;BME280;26080;42.264;24.536;2023-12-20T09:57:48;99126.16;;;5.73;100.00
39793;BME280;26080;42.264;24.536;2023-12-20T10:00:14;99136.19;;;5.85;100.00
39793;BME280;26080;42.264;24.536;2023-12-20T10:03:00;99133.91;;;5.76;100.00
39793;BME280;26080;42.264;24.536;2023-12-20T10:05:28;99124.38;;;5.75;100.00
39793;BME280;26080;42.264;24.536;2023-12-20T10:07:53;99121.97;;;5.69;100.00
39793;BME280;26080;42.264;24.536;2023-12-20T10:10:19;99118.25;;;5.77;100.00
39793;BME280;26080;42.264;24.536;2023-12-20T10:13:04;99107.88;;;5.77;100.00
39793;BME280;26080;42.264;24.536;2023-12-20T10:15:30;99109.34;;;5.84;100.00
39793;BME280;26080;42.264;24.536;2023-12-20T10:17:56;99111.06;;;5.85;100.00
39793;BME280;26080;42.264;24.536;2023-12-20T10:20:22;99114.72;;;5.80;100.00
39793;BME280;26080;42.264;24.536;2023-12-20T10:22:47;99083.84;;;5.69;100.00
39793;BME280;26080;42.264;24.536;2023-12-20T10:25:14;99082.78;;;5.75;100.00
39793;BME280;26080;42.264;24.536;2023-12-20T10:27:39;99092.91;;;5.84;100.00
39793;BME280;26080;42.264;24.536;2023-12-20T10:30:05;99093.03;;;5.81;100.00
39793;BME280;26080;42.264;24.536;2023-12-20T10:32:31;99069.38;;;5.88;100.00
39793;BME280;26080;42.264;24.536;2023-12-20T10:34:56;99073.94;;;5.82;100.00
39793;BME280;26080;42.264;24.536;2023-12-20T10:37:22;99067.53;;;5.93;100.00
39793;BME280;26080;42.264;24.536;2023-12-20T10:39:52;99069.97;;;5.98;100.00
39793;BME280;26080;42.264;24.536;2023-12-20T10:42:22;99062.78;;;6.06;100.00
39793;BME280;26080;42.264;24.536;2023-12-20T10:44:50;99048.94;;;6.06;100.00
39793;BME280;26080;42.264;24.536;2023-12-20T10:47:17;99054.81;;;6.11;100.00
39793;BME280;26080;42.264;24.536;2023-12-20T10:49:43;99001.78;;;5.88;100.00
39793;BME280;26080;42.264;24.536;2023-12-20T10:52:13;99005.16;;;6.18;100.00
39793;BME280;26080;42.264;24.536;2023-12-20T10:54:41;99026.97;;;6.39;100.00
39793;BME280;26080;42.264;24.536;2023-12-20T10:57:07;99023.41;;;6.42;100.00
39793;BME280;26080;42.264;24.536;2023-12-20T10:59:39;99015.97;;;6.56;100.00
39793;BME280;26080;42.264;24.536;2023-12-20T11:02:05;99013.97;;;6.64;100.00
39793;BME280;26080;42.264;24.536;2023-12-20T11:04:37;99007.72;;;6.68;100.00
39793;BME280;26080;42.264;24.536;2023-12-20T11:07:35;99010.34;;;6.68;100.00
39793;BME280;26080;42.264;24.536;2023-12-20T11:10:25;99014.31;;;6.78;100.00
39793;BME280;26080;42.264;24.536;2023-12-20T11:12:54;99005.53;;;6.81;100.00
39793;BME280;26080;42.264;24.536;2023-12-20T11:15:22;98960.28;;;6.62;100.00
39793;BME280;26080;42.264;24.536;2023-12-20T11:17:56;98990.56;;;6.88;100.00
39793;BME280;26080;42.264;24.536;2023-12-20T11:20:23;98992.19;;;6.90;100.00
39793;BME280;26080;42.264;24.536;2023-12-20T11:22:54;98989.78;;;6.84;100.00
39793;BME280;26080;42.264;24.536;2023-12-20T11:25:21;98980.94;;;6.90;100.00
39793;BME280;26080;42.264;24.536;2023-12-20T11:28:07;98939.09;;;6.71;100.00
39793;BME280;26080;42.264;24.536;2023-12-20T11:30:54;98976.22;;;6.99;100.00
39793;BME280;26080;42.264;24.536;2023-12-20T11:33:24;98938.38;;;6.91;100.00
39793;BME280;26080;42.264;24.536;2023-12-20T11:35:50;98961.41;;;7.01;100.00
39793;BME280;26080;42.264;24.536;2023-12-20T11:38:15;98964.66;;;7.06;100.00
39793;BME280;26080;42.264;24.536;2023-12-20T11:40:42;98956.81;;;7.30;100.00
39793;BME280;26080;42.264;24.536;2023-12-20T11:43:08;98958.66;;;7.26;100.00
39793;BME280;26080;42.264;24.536;2023-12-20T11:45:34;98940.41;;;7.28;100.00
39793;BME280;26080;42.264;24.536;2023-12-20T11:48:02;98950.63;;;7.32;100.00
39793;BME280;26080;42.264;24.536;2023-12-20T11:50:28;98939.09;;;7.38;100.00
39793;BME280;26080;42.264;24.536;2023-12-20T11:52:56;98938.69;;;7.49;100.00
39793;BME280;26080;42.264;24.536;2023-12-20T11:55:22;98936.56;;;7.58;100.00
39793;BME280;26080;42.264;24.536;2023-12-20T11:57:50;98898.53;;;7.32;100.00
39793;BME280;26080;42.264;24.536;2023-12-20T12:00:16;98918.47;;;7.54;100.00
39793;BME280;26080;42.264;24.536;2023-12-20T12:02:43;98918.13;;;7.63;100.00
39793;BME280;26080;42.264;24.536;2023-12-20T12:05:08;98893.47;;;7.50;100.00
39793;BME280;26080;42.264;24.536;2023-12-20T12:07:34;98919.38;;;7.75;100.00
39793;BME280;26080;42.264;24.536;2023-12-20T12:10:00;98910.31;;;7.83;100.00
39793;BME280;26080;42.264;24.536;2023-12-20T12:12:26;98902.22;;;7.89;100.00
39793;BME280;26080;42.264;24.536;2023-12-20T12:14:53;98902.22;;;7.89;100.00
39793;BME280;26080;42.264;24.536;2023-12-20T12:17:18;98879.28;;;7.77;100.00
39793;BME280;26080;42.264;24.536;2023-12-20T12:19:44;98899.47;;;7.92;100.00
39793;BME280;26080;42.264;24.536;2023-12-20T12:22:11;98905.97;;;7.84;100.00
39793;BME280;26080;42.264;24.536;2023-12-20T12:24:45;98901.72;;;7.81;100.00
39793;BME280;26080;42.264;24.536;2023-12-20T12:27:12;98909.91;;;7.92;100.00
39793;BME280;26080;42.264;24.536;2023-12-20T12:29:38;98905.38;;;7.97;100.00
39793;BME280;26080;42.264;24.536;2023-12-20T12:32:07;98899.88;;;8.03;100.00
39793;BME280;26080;42.264;24.536;2023-12-20T12:34:36;98903.31;;;8.04;100.00
39793;BME280;26080;42.264;24.536;2023-12-20T12:37:03;98900.66;;;8.06;100.00
39793;BME280;26080;42.264;24.536;2023-12-20T12:39:29;98887.75;;;8.02;100.00